Time;durP1;ratioP1;P1;durP2;ratioP2;P2;SDS_P1;SDS_P2;PMS_P1;PMS_P2;Temp;Humidity;BMP_temperature;BMP_pressure;BME280_temperature;BME280_humidity;BME280_pressure;Samples;Min_cycle;Max_cycle;Signal;HPM_P1;HPM_P2
2024/01/24 00:00:17;;;;;;;8.50;2.20;;;;;;;4.98;100.00;101236.38;5000736;28;20231;-72
2024/01/24 00:02:44;;;;;;;8.03;2.00;;;;;;;5.02;100.00;101232.19;4998014;28;20194;-72
2024/01/24 00:05:12;;;;;;;10.40;2.10;;;;;;;5.06;100.00;101220.13;5014834;28;20209;-72
2024/01/24 00:07:38;;;;;;;8.57;2.00;;;;;;;5.10;100.00;101205.44;4999148;28;20206;-72
2024/01/24 00:10:06;;;;;;;8.63;1.90;;;;;;;5.14;100.00;101197.81;5005057;28;20203;-72
2024/01/24 00:12:34;;;;;;;9.57;1.83;;;;;;;5.17;100.00;101192.00;5003274;28;20220;-72
2024/01/24 00:15:00;;;;;;;5.70;1.73;;;;;;;5.21;100.00;101179.94;5001172;28;20311;-72
2024/01/24 00:17:27;;;;;;;6.37;1.60;;;;;;;5.23;100.00;101155.06;5000649;28;20209;-72
2024/01/24 00:19:53;;;;;;;5.17;1.77;;;;;;;5.28;100.00;101149.00;5000633;28;20212;-72
2024/01/24 00:22:21;;;;;;;5.30;1.60;;;;;;;5.33;100.00;101136.63;5003340;28;20200;-72
2024/01/24 00:24:47;;;;;;;4.17;1.40;;;;;;;5.36;100.00;101127.44;5002138;28;20576;-72
2024/01/24 00:27:13;;;;;;;7.33;1.57;;;;;;;5.40;100.00;101117.97;4998353;28;20211;-72
2024/01/24 00:29:40;;;;;;;7.57;1.87;;;;;;;5.45;100.00;101110.06;5001984;28;20204;-72
2024/01/24 00:32:07;;;;;;;6.20;1.93;;;;;;;5.49;100.00;101098.75;5002562;28;20220;-72
2024/01/24 00:34:33;;;;;;;5.10;1.60;;;;;;;5.54;100.00;101106.56;4999012;28;20242;-72
2024/01/24 00:36:59;;;;;;;6.00;1.50;;;;;;;5.56;100.00;101086.13;4999768;28;20197;-72
2024/01/24 00:39:27;;;;;;;5.50;1.60;;;;;;;5.63;100.00;101085.75;5003136;28;20846;-72
2024/01/24 00:41:56;;;;;;;5.53;1.50;;;;;;;5.67;100.00;101066.59;5003337;28;20193;-72
2024/01/24 00:44:22;;;;;;;3.47;1.87;;;;;;;5.70;100.00;101066.00;4998011;28;20417;-72
2024/01/24 00:46:48;;;;;;;2.27;1.33;;;;;;;5.75;100.00;101070.44;5000346;28;20205;-72
2024/01/24 00:49:15;;;;;;;5.90;1.37;;;;;;;5.79;100.00;101061.72;5000262;28;20203;-71
2024/01/24 00:51:42;;;;;;;6.37;1.13;;;;;;;5.81;100.00;101053.63;5000211;28;20243;-71
2024/01/24 00:54:08;;;;;;;5.80;1.30;;;;;;;5.82;100.00;101045.47;5001063;28;20223;-72
2024/01/24 00:56:36;;;;;;;4.60;1.30;;;;;;;5.86;100.00;101056.16;5013271;28;20192;-71
2024/01/24 00:59:02;;;;;;;5.90;1.43;;;;;;;5.87;100.00;101029.69;5023686;28;20958;-71
2024/01/24 01:01:29;;;;;;;4.33;1.47;;;;;;;5.86;100.00;101025.47;5030707;28;20252;-71
2024/01/24 01:03:55;;;;;;;3.27;1.37;;;;;;;5.86;100.00;101009.75;5025773;28;20269;-71
2024/01/24 01:06:22;;;;;;;5.33;1.50;;;;;;;5.86;100.00;101007.13;5028454;28;20264;-71
2024/01/24 01:08:48;;;;;;;6.17;1.37;;;;;;;5.85;100.00;101015.31;5026048;28;20247;-72
2024/01/24 01:11:15;;;;;;;6.20;1.70;;;;;;;5.82;100.00;101000.13;5019593;28;20207;-72
2024/01/24 01:13:42;;;;;;;4.50;1.40;;;;;;;5.80;100.00;101008.28;5006396;28;20218;-72
2024/01/24 01:16:09;;;;;;;7.17;1.73;;;;;;;5.79;100.00;101009.31;5012606;28;20217;-72
2024/01/24 01:18:35;;;;;;;5.37;1.47;;;;;;;5.76;100.00;100999.38;5012594;28;21799;-72
2024/01/24 01:21:01;;;;;;;5.73;1.57;;;;;;;5.73;100.00;100984.25;5008995;28;20207;-72
2024/01/24 01:23:29;;;;;;;6.53;1.63;;;;;;;5.70;100.00;100973.56;5021062;28;21782;-71
2024/01/24 01:25:55;;;;;;;6.23;1.23;;;;;;;5.65;100.00;100963.91;5040225;28;20240;-71
2024/01/24 01:28:21;;;;;;;6.13;1.57;;;;;;;5.63;100.00;100941.69;5025563;28;20260;-71
2024/01/24 01:30:49;;;;;;;4.77;1.30;;;;;;;5.59;100.00;100938.09;5021823;28;20254;-71
2024/01/24 01:33:15;;;;;;;7.87;1.50;;;;;;;5.57;100.00;100935.75;5027401;28;20216;-71
2024/01/24 01:35:42;;;;;;;6.93;1.63;;;;;;;5.53;100.00;100920.84;5028868;28;20228;-72
2024/01/24 01:38:08;;;;;;;4.93;1.30;;;;;;;5.50;100.00;100896.00;5021705;28;20388;-71
2024/01/24 01:40:35;;;;;;;5.43;1.30;;;;;;;5.48;100.00;100884.25;5005798;28;20205;-72
2024/01/24 01:43:01;;;;;;;6.50;1.50;;;;;;;5.45;100.00;100871.75;4997143;28;20197;-72
2024/01/24 01:45:27;;;;;;;4.73;1.67;;;;;;;5.43;100.00;100869.41;4997102;28;20225;-72
2024/01/24 01:47:57;;;;;;;7.17;1.53;;;;;;;5.40;100.00;100863.97;5000903;28;20201;-72
2024/01/24 01:50:23;;;;;;;6.70;1.67;;;;;;;5.35;100.00;100859.59;5001927;28;20208;-72
2024/01/24 01:52:50;;;;;;;5.67;1.33;;;;;;;5.33;100.00;100846.00;5000835;28;20220;-72
2024/01/24 01:55:17;;;;;;;4.30;1.50;;;;;;;5.31;100.00;100844.72;5000229;28;20220;-72
2024/01/24 01:57:44;;;;;;;3.33;1.20;;;;;;;5.31;100.00;100839.47;4995530;28;20202;-72
2024/01/24 02:00:11;;;;;;;3.63;1.10;;;;;;;5.28;100.00;100826.97;5014971;28;20225;-72
2024/01/24 02:02:37;;;;;;;3.70;1.47;;;;;;;5.26;100.00;100811.53;5001207;28;20233;-72
2024/01/24 02:05:06;;;;;;;4.60;1.10;;;;;;;5.26;100.00;100798.47;4998987;28;20216;-72
2024/01/24 02:07:33;;;;;;;2.93;1.00;;;;;;;5.27;100.00;100792.16;4998320;28;20578;-72
2024/01/24 02:09:59;;;;;;;5.03;1.40;;;;;;;5.28;100.00;100787.72;4997018;28;20207;-72
2024/01/24 02:12:25;;;;;;;3.97;1.13;;;;;;;5.29;100.00;100776.94;4997028;28;20769;-72
2024/01/24 02:14:52;;;;;;;1.77;1.07;;;;;;;5.30;100.00;100762.78;5016257;28;20238;-72
2024/01/24 02:17:18;;;;;;;2.67;1.10;;;;;;;5.34;100.00;100765.63;4996599;28;20231;-72
2024/01/24 02:19:44;;;;;;;3.93;1.20;;;;;;;5.36;100.00;100766.88;5001999;28;20226;-72
2024/01/24 02:22:12;;;;;;;5.23;1.17;;;;;;;5.38;100.00;100750.91;4995578;28;20203;-72
2024/01/24 02:24:40;;;;;;;5.70;1.73;;;;;;;5.39;100.00;100747.97;4999162;28;20712;-72
2024/01/24 02:27:06;;;;;;;2.10;1.00;;;;;;;5.40;100.00;100733.84;4997100;28;20212;-72
2024/01/24 02:29:33;;;;;;;6.20;1.30;;;;;;;5.41;100.00;100730.16;5004223;28;20228;-72
2024/01/24 02:31:59;;;;;;;3.67;1.10;;;;;;;5.43;100.00;100724.59;4998838;28;20199;-72
2024/01/24 02:34:25;;;;;;;4.50;1.00;;;;;;;5.43;100.00;100733.25;5002269;28;20718;-73
2024/01/24 02:36:52;;;;;;;2.40;0.80;;;;;;;5.44;100.00;100718.31;4999917;28;20690;-72
2024/01/24 02:39:18;;;;;;;6.63;1.40;;;;;;;5.46;100.00;100718.81;5002445;28;20231;-73
2024/01/24 02:41:46;;;;;;;1.20;0.83;;;;;;;5.48;100.00;100698.31;4998383;28;20209;-73
2024/01/24 02:44:12;;;;;;;7.57;1.33;;;;;;;5.50;100.00;100696.22;4999644;28;20200;-73
2024/01/24 02:46:39;;;;;;;3.27;0.80;;;;;;;5.51;100.00;100688.06;4998316;28;20209;-72
2024/01/24 02:49:05;;;;;;;1.83;0.80;;;;;;;5.54;100.00;100687.47;4997902;28;20201;-72
2024/01/24 02:51:31;;;;;;;1.77;0.77;;;;;;;5.58;100.00;100670.13;4999006;28;20207;-72
2024/01/24 02:53:58;;;;;;;4.50;1.63;;;;;;;5.65;100.00;100643.56;5002483;28;20246;-73
2024/01/24 02:56:24;;;;;;;2.47;0.80;;;;;;;5.66;100.00;100640.66;4998865;28;20243;-72
2024/01/24 02:58:52;;;;;;;3.07;0.93;;;;;;;5.72;100.00;100636.09;4999422;28;20196;-72
2024/01/24 03:01:18;;;;;;;5.90;0.97;;;;;;;5.75;100.00;100620.53;4997677;28;20787;-72
2024/01/24 03:03:44;;;;;;;1.47;0.90;;;;;;;5.78;100.00;100630.47;4994910;28;20212;-72
2024/01/24 03:06:11;;;;;;;1.63;0.77;;;;;;;5.82;100.00;100628.84;5000504;28;20579;-73
2024/01/24 03:08:48;;;;;;;2.87;0.70;;;;;;;5.86;100.00;100610.69;4999633;28;20216;-73
2024/01/24 03:11:15;;;;;;;1.03;0.73;;;;;;;5.91;100.00;100600.09;4998744;28;20788;-73
2024/01/24 03:13:41;;;;;;;1.43;0.80;;;;;;;5.97;100.00;100604.16;4998333;28;20635;-73
2024/01/24 03:16:09;;;;;;;1.30;0.70;;;;;;;6.01;100.00;100599.91;4997121;28;20225;-73
2024/01/24 03:18:37;;;;;;;2.53;0.90;;;;;;;6.05;100.00;100603.44;5000336;28;20223;-73
2024/01/24 03:21:04;;;;;;;2.07;1.17;;;;;;;6.09;100.00;100588.69;4999654;28;20296;-73
2024/01/24 03:23:31;;;;;;;1.77;0.90;;;;;;;6.12;100.00;100604.59;5013530;28;20224;-73
2024/01/24 03:25:58;;;;;;;3.93;1.20;;;;;;;6.14;100.00;100592.00;4998739;28;20328;-73
2024/01/24 03:28:24;;;;;;;3.33;1.00;;;;;;;6.18;100.00;100565.97;4999066;28;20203;-73
2024/01/24 03:30:51;;;;;;;1.10;1.00;;;;;;;6.22;100.00;100578.16;5000666;28;20604;-73
2024/01/24 03:33:18;;;;;;;5.67;1.23;;;;;;;6.26;100.00;100588.88;4998916;28;20219;-73
2024/01/24 03:35:45;;;;;;;1.17;0.83;;;;;;;6.29;100.00;100586.41;4996545;28;20221;-73
2024/01/24 03:38:12;;;;;;;1.27;0.77;;;;;;;6.32;100.00;100580.56;4996871;28;20205;-73
2024/01/24 03:40:38;;;;;;;2.47;1.00;;;;;;;6.37;100.00;100571.81;4997595;28;20201;-73
2024/01/24 03:43:05;;;;;;;5.37;1.47;;;;;;;6.41;100.00;100559.66;5016082;28;20207;-73
2024/01/24 03:45:31;;;;;;;1.97;1.00;;;;;;;6.45;100.00;100560.59;4995409;28;20278;-73
2024/01/24 03:47:58;;;;;;;3.40;0.97;;;;;;;6.51;100.00;100562.03;4997938;28;20580;-73
2024/01/24 03:50:25;;;;;;;2.47;1.07;;;;;;;6.57;100.00;100538.00;4997587;28;20575;-73
2024/01/24 03:52:52;;;;;;;3.93;1.10;;;;;;;6.64;100.00;100532.34;4995908;28;20204;-73
2024/01/24 03:55:18;;;;;;;2.93;1.37;;;;;;;6.71;100.00;100564.19;4997229;28;20631;-73
2024/01/24 03:57:44;;;;;;;2.30;1.17;;;;;;;6.74;100.00;100535.47;4995432;28;20217;-73
2024/01/24 04:00:12;;;;;;;2.77;1.17;;;;;;;6.77;100.00;100521.78;5001158;28;20206;-73
2024/01/24 04:02:40;;;;;;;6.03;1.50;;;;;;;6.83;100.00;100531.06;5008957;28;20316;-73
2024/01/24 04:05:07;;;;;;;3.50;1.30;;;;;;;6.87;100.00;100528.59;5000348;28;20224;-73
2024/01/24 04:07:35;;;;;;;2.67;1.20;;;;;;;6.93;100.00;100524.75;4997531;28;20296;-73
2024/01/24 04:10:03;;;;;;;2.60;1.30;;;;;;;6.99;100.00;100528.84;5002024;28;20204;-73
2024/01/24 04:12:30;;;;;;;3.60;1.33;;;;;;;7.03;100.00;100525.28;4997635;28;20200;-73
2024/01/24 04:14:56;;;;;;;4.03;1.27;;;;;;;7.10;100.00;100535.38;4994483;28;20221;-73
2024/01/24 04:17:23;;;;;;;3.20;1.17;;;;;;;7.12;100.00;100533.97;4997756;28;20215;-73
2024/01/24 04:19:49;;;;;;;2.40;1.20;;;;;;;7.16;100.00;100518.38;4994288;28;20207;-73
2024/01/24 04:22:16;;;;;;;5.03;1.20;;;;;;;7.19;100.00;100518.56;4998085;28;20255;-72
2024/01/24 04:24:44;;;;;;;6.67;1.70;;;;;;;7.22;100.00;100520.59;4994756;28;20291;-73
2024/01/24 04:27:10;;;;;;;2.90;1.47;;;;;;;7.29;100.00;100504.38;4996172;28;20656;-72
2024/01/24 04:29:36;;;;;;;1.37;1.20;;;;;;;7.35;100.00;100518.94;4999913;28;20209;-72
2024/01/24 04:32:03;;;;;;;5.37;1.40;;;;;;;7.38;100.00;100513.84;4998434;28;20206;-72
2024/01/24 04:34:30;;;;;;;3.33;1.20;;;;;;;7.44;100.00;100514.44;4996231;28;20236;-72
2024/01/24 04:36:56;;;;;;;6.20;1.10;;;;;;;7.48;100.00;100497.78;5016104;28;20209;-73
2024/01/24 04:39:22;;;;;;;4.73;1.30;;;;;;;7.51;100.00;100499.78;4999421;28;20204;-73
2024/01/24 04:41:50;;;;;;;3.27;1.80;;;;;;;7.58;100.00;100488.81;4994563;28;20217;-73
2024/01/24 04:44:16;;;;;;;4.10;1.30;;;;;;;7.61;100.00;100491.59;4993136;28;20212;-73
2024/01/24 04:46:43;;;;;;;4.27;1.20;;;;;;;7.67;100.00;100487.00;4991804;28;20220;-72
2024/01/24 04:49:09;;;;;;;4.30;1.57;;;;;;;7.70;100.00;100474.00;4993722;28;20206;-72
2024/01/24 04:51:36;;;;;;;2.30;1.20;;;;;;;7.78;100.00;100469.84;4995784;28;20211;-73
2024/01/24 04:54:02;;;;;;;2.90;1.57;;;;;;;7.81;100.00;100462.09;4998127;28;20221;-72
2024/01/24 04:56:28;;;;;;;1.50;1.10;;;;;;;7.85;100.00;100463.03;4999448;28;20233;-72
2024/01/24 04:58:56;;;;;;;1.53;1.03;;;;;;;7.87;100.00;100450.34;4999511;28;20281;-73
2024/01/24 05:01:22;;;;;;;1.87;1.23;;;;;;;7.92;100.00;100446.81;4998884;28;20207;-73
2024/01/24 05:03:49;;;;;;;5.60;1.70;;;;;;;7.97;100.00;100444.78;4996334;28;20211;-73
2024/01/24 05:06:15;;;;;;;4.10;2.23;;;;;;;8.00;100.00;100431.00;4997218;28;20763;-73
2024/01/24 05:08:42;;;;;;;1.60;1.30;;;;;;;8.05;100.00;100427.44;4999641;28;20203;-73
2024/01/24 05:11:09;;;;;;;4.53;1.10;;;;;;;8.06;100.00;100428.97;4998751;28;20197;-73
2024/01/24 05:13:36;;;;;;;2.33;1.10;;;;;;;8.11;100.00;100434.06;4995651;28;20224;-73
2024/01/24 05:16:04;;;;;;;1.20;0.90;;;;;;;8.15;100.00;100408.72;4997470;28;20747;-73
2024/01/24 05:18:31;;;;;;;5.20;1.20;;;;;;;8.20;100.00;100427.75;5001008;28;20204;-72
2024/01/24 05:20:57;;;;;;;1.67;1.10;;;;;;;8.23;100.00;100411.34;4998591;28;20207;-73
2024/01/24 05:23:24;;;;;;;1.80;0.90;;;;;;;8.24;100.00;100407.63;5000191;28;20691;-73
2024/01/24 05:25:50;;;;;;;1.37;0.80;;;;;;;8.27;100.00;100416.75;4996134;28;20228;-72
2024/01/24 05:28:16;;;;;;;3.73;1.03;;;;;;;8.32;100.00;100427.09;4996405;28;20200;-73
2024/01/24 05:30:43;;;;;;;1.57;1.00;;;;;;;8.34;100.00;100424.94;4999851;28;20208;-72
2024/01/24 05:33:11;;;;;;;1.50;1.00;;;;;;;8.38;100.00;100431.13;5000780;28;20209;-73
2024/01/24 05:35:37;;;;;;;1.23;1.10;;;;;;;8.41;100.00;100415.50;5004892;28;20703;-73
2024/01/24 05:38:04;;;;;;;3.40;1.10;;;;;;;8.46;100.00;100407.41;5001188;28;20195;-72
2024/01/24 05:40:31;;;;;;;4.40;1.20;;;;;;;8.50;100.00;100423.34;4998800;28;20188;-73
2024/01/24 05:42:57;;;;;;;1.73;0.80;;;;;;;8.53;100.00;100418.22;5000574;28;20206;-73
2024/01/24 05:45:24;;;;;;;1.30;0.90;;;;;;;8.55;100.00;100402.88;4997306;28;20304;-73
2024/01/24 05:47:50;;;;;;;2.47;1.00;;;;;;;8.57;100.00;100397.31;4998352;28;20285;-73
2024/01/24 05:50:18;;;;;;;2.00;0.90;;;;;;;8.61;100.00;100400.84;5004567;28;20200;-73
2024/01/24 05:52:45;;;;;;;1.13;1.00;;;;;;;8.62;100.00;100397.91;4998374;28;20607;-73
2024/01/24 05:55:12;;;;;;;1.10;0.93;;;;;;;8.63;100.00;100393.41;4997482;28;20631;-73
2024/01/24 05:57:40;;;;;;;2.87;1.10;;;;;;;8.68;100.00;100382.69;4999571;28;20205;-73
2024/01/24 06:00:08;;;;;;;1.53;0.70;;;;;;;8.70;100.00;100391.81;5003750;28;20199;-73
2024/01/24 06:02:34;;;;;;;3.30;1.00;;;;;;;8.73;100.00;100377.25;4996533;28;20682;-73
2024/01/24 06:05:01;;;;;;;1.37;1.07;;;;;;;8.77;100.00;100367.63;4998321;28;20219;-72
2024/01/24 06:07:28;;;;;;;1.60;0.80;;;;;;;8.81;100.00;100374.56;4996666;28;20196;-72
2024/01/24 06:09:55;;;;;;;1.27;1.00;;;;;;;8.83;100.00;100380.31;5013463;28;20213;-72
2024/01/24 06:12:21;;;;;;;1.33;1.00;;;;;;;8.84;100.00;100354.75;4996465;28;20211;-71
2024/01/24 06:14:48;;;;;;;1.00;0.90;;;;;;;8.87;100.00;100354.91;4998500;28;20238;-72
2024/01/24 06:17:14;;;;;;;1.03;0.93;;;;;;;8.85;100.00;100349.16;4998308;28;20200;-72
2024/01/24 06:19:42;;;;;;;0.70;0.70;;;;;;;8.88;100.00;100331.94;4996976;28;20196;-72
2024/01/24 06:22:09;;;;;;;2.10;1.13;;;;;;;8.91;100.00;100350.50;4999729;28;20214;-72
2024/01/24 06:24:38;;;;;;;1.87;1.10;;;;;;;8.94;100.00;100320.91;4998238;28;20832;-72
2024/01/24 06:27:05;;;;;;;1.90;0.90;;;;;;;8.98;100.00;100344.75;4994170;28;20212;-72
2024/01/24 06:29:31;;;;;;;1.57;0.93;;;;;;;9.01;100.00;100334.34;4998046;28;20247;-72
2024/01/24 06:31:58;;;;;;;2.23;0.90;;;;;;;9.00;100.00;100350.47;4996758;28;20204;-72
2024/01/24 06:34:25;;;;;;;2.03;0.77;;;;;;;9.01;100.00;100336.97;4997674;28;20572;-72
2024/01/24 06:36:52;;;;;;;1.30;0.80;;;;;;;9.02;100.00;100327.22;4997837;28;20602;-73
2024/01/24 06:39:18;;;;;;;1.20;0.80;;;;;;;9.03;100.00;100321.63;4998243;28;20209;-72
2024/01/24 06:41:46;;;;;;;1.37;0.87;;;;;;;9.03;100.00;100320.84;5016449;28;20212;-72
2024/01/24 06:44:12;;;;;;;1.67;1.00;;;;;;;9.02;100.00;100317.47;5003765;28;20863;-72
2024/01/24 06:46:42;;;;;;;2.87;0.90;;;;;;;9.06;100.00;100320.97;4999143;28;20211;-72
2024/01/24 06:49:10;;;;;;;1.73;1.07;;;;;;;9.07;100.00;100329.66;5000379;28;20211;-72
2024/01/24 06:51:37;;;;;;;2.27;1.20;;;;;;;9.05;100.00;100306.28;4997088;28;20563;-72
2024/01/24 06:54:04;;;;;;;0.80;0.73;;;;;;;9.07;100.00;100298.81;4998997;28;20218;-72
2024/01/24 06:56:30;;;;;;;0.97;0.80;;;;;;;9.08;100.00;100303.00;4999518;28;20270;-72
2024/01/24 06:58:58;;;;;;;0.70;0.70;;;;;;;9.10;100.00;100306.09;4999960;28;20205;-72
2024/01/24 07:01:24;;;;;;;1.17;0.73;;;;;;;9.14;100.00;100308.84;4999015;28;20208;-72
2024/01/24 07:03:50;;;;;;;2.97;0.70;;;;;;;9.22;100.00;100329.09;4996638;28;20715;-72
2024/01/24 07:06:17;;;;;;;1.40;1.10;;;;;;;9.25;100.00;100302.09;4994854;28;20306;-72
2024/01/24 07:08:43;;;;;;;2.00;0.80;;;;;;;9.29;100.00;100308.25;5000840;28;20208;-72
2024/01/24 07:11:09;;;;;;;3.40;1.10;;;;;;;9.31;100.00;100288.41;5001775;28;20228;-72
2024/01/24 07:13:37;;;;;;;1.00;0.77;;;;;;;9.37;100.00;100312.69;5000053;28;20205;-71
2024/01/24 07:16:07;;;;;;;0.83;0.83;;;;;;;9.45;100.00;100282.84;4998492;28;20815;-72
2024/01/24 07:18:34;;;;;;;1.20;1.10;;;;;;;9.52;100.00;100288.38;4999281;28;20735;-72
2024/01/24 07:21:00;;;;;;;3.37;1.27;;;;;;;9.60;100.00;100295.41;5000054;28;20207;-72
2024/01/24 07:23:26;;;;;;;1.57;0.97;;;;;;;9.63;100.00;100281.59;4999907;28;20211;-72
2024/01/24 07:25:53;;;;;;;2.13;1.10;;;;;;;9.66;100.00;100275.66;5001458;28;20246;-72
2024/01/24 07:28:20;;;;;;;1.00;0.80;;;;;;;9.72;100.00;100254.03;5001080;28;20192;-72
2024/01/24 07:30:46;;;;;;;1.33;0.90;;;;;;;9.76;100.00;100265.47;5001232;28;20215;-72
2024/01/24 07:33:14;;;;;;;2.07;1.00;;;;;;;9.82;100.00;100258.09;5000506;28;20946;-72
2024/01/24 07:35:41;;;;;;;1.97;0.97;;;;;;;9.85;100.00;100252.19;5001279;28;20250;-72
2024/01/24 07:38:07;;;;;;;1.87;1.03;;;;;;;9.88;100.00;100273.41;5002051;28;20295;-72
2024/01/24 07:40:34;;;;;;;1.87;1.17;;;;;;;9.92;100.00;100284.06;5000807;28;20584;-72
2024/01/24 07:43:00;;;;;;;1.20;0.90;;;;;;;9.95;100.00;100276.25;5001946;28;20786;-72
2024/01/24 07:45:28;;;;;;;2.30;0.70;;;;;;;10.01;100.00;100290.00;5001660;28;20699;-72
2024/01/24 07:47:55;;;;;;;1.27;0.73;;;;;;;10.10;100.00;100274.91;5000559;28;20228;-72
2024/01/24 07:50:22;;;;;;;0.90;0.70;;;;;;;10.17;100.00;100289.09;5000729;28;20210;-72
2024/01/24 07:52:49;;;;;;;1.43;0.70;;;;;;;10.22;100.00;100301.28;5000027;28;20205;-72
2024/01/24 07:55:16;;;;;;;1.40;0.90;;;;;;;10.26;100.00;100324.03;5000831;28;20693;-72
2024/01/24 07:57:42;;;;;;;0.80;0.70;;;;;;;10.30;100.00;100316.25;5000252;28;20583;-72
2024/01/24 08:00:14;;;;;;;0.50;0.50;;;;;;;10.31;100.00;100320.41;5002527;28;20201;-72
2024/01/24 08:02:43;;;;;;;0.60;0.60;;;;;;;10.34;100.00;100331.09;5015219;28;20666;-73
2024/01/24 08:05:10;;;;;;;1.77;0.80;;;;;;;10.35;100.00;100339.78;4997335;28;20653;-72
2024/01/24 08:07:40;;;;;;;1.17;0.80;;;;;;;10.37;100.00;100346.28;4996594;28;20203;-72
2024/01/24 08:10:10;;;;;;;1.43;1.10;;;;;;;10.35;100.00;100359.00;4997877;28;20786;-72
2024/01/24 08:12:37;;;;;;;1.27;0.60;;;;;;;10.33;100.00;100361.22;4995510;28;20205;-72
2024/01/24 08:15:05;;;;;;;0.80;0.70;;;;;;;10.30;100.00;100367.13;4997549;28;20241;-72
2024/01/24 08:17:31;;;;;;;0.90;0.77;;;;;;;10.25;100.00;100416.75;5002065;28;20279;-73
2024/01/24 08:19:58;;;;;;;1.97;0.70;;;;;;;10.22;100.00;100425.28;4999661;28;20217;-73
2024/01/24 08:22:24;;;;;;;1.73;0.63;;;;;;;10.16;100.00;100448.50;5001520;28;20673;-74
2024/01/24 08:24:52;;;;;;;0.90;0.90;;;;;;;10.08;100.00;100416.88;5003026;28;20221;-75
2024/01/24 08:27:18;;;;;;;2.00;0.97;;;;;;;10.02;100.00;100404.97;4998800;28;20217;-75
2024/01/24 08:29:44;;;;;;;0.93;0.80;;;;;;;9.97;100.00;100413.09;5006148;28;20271;-74
2024/01/24 08:32:11;;;;;;;2.73;1.53;;;;;;;9.89;100.00;100411.31;5010239;28;20206;-75
2024/01/24 08:34:38;;;;;;;1.20;0.70;;;;;;;9.82;100.00;100411.06;5005330;28;20216;-74
2024/01/24 08:37:05;;;;;;;0.40;0.40;;;;;;;9.76;100.00;100421.03;5010156;28;20204;-74
2024/01/24 08:39:32;;;;;;;0.60;0.60;;;;;;;9.74;100.00;100422.47;5007215;28;20207;-75
2024/01/24 08:42:00;;;;;;;1.27;0.60;;;;;;;9.68;100.00;100407.94;5007894;28;20231;-74
2024/01/24 08:44:27;;;;;;;0.97;0.70;;;;;;;9.62;100.00;100402.09;5007341;28;20488;-76
2024/01/24 08:46:53;;;;;;;0.50;0.50;;;;;;;9.59;100.00;100418.56;5005093;28;20214;-76
2024/01/24 08:49:19;;;;;;;1.03;0.70;;;;;;;9.55;100.00;100409.75;5003355;28;20197;-75
2024/01/24 08:51:46;;;;;;;0.70;0.70;;;;;;;9.54;100.00;100407.44;5003062;28;20197;-75
2024/01/24 08:54:12;;;;;;;2.20;0.70;;;;;;;9.51;100.00;100411.47;5007126;28;20287;-75
2024/01/24 08:56:39;;;;;;;0.83;0.83;;;;;;;9.50;100.00;100414.44;5007091;28;20324;-76
2024/01/24 08:59:07;;;;;;;0.87;0.67;;;;;;;9.48;100.00;100422.66;5003862;28;20200;-75
2024/01/24 09:01:33;;;;;;;0.97;0.83;;;;;;;9.48;100.00;100420.00;5024596;28;20201;-75
2024/01/24 09:04:00;;;;;;;0.50;0.50;;;;;;;9.48;100.00;100409.47;5005108;28;20207;-75
2024/01/24 09:06:26;;;;;;;0.50;0.50;;;;;;;9.48;100.00;100409.47;5003483;28;20220;-75
2024/01/24 09:08:53;;;;;;;1.10;0.80;;;;;;;9.49;100.00;100405.75;5004928;28;20203;-75
2024/01/24 09:11:19;;;;;;;2.20;0.90;;;;;;;9.48;100.00;100406.84;5004312;28;20228;-75
2024/01/24 09:13:46;;;;;;;1.63;1.53;;;;;;;9.50;100.00;100409.94;5002848;28;20201;-75
2024/01/24 09:16:14;;;;;;;3.47;2.50;;;;;;;9.51;100.00;100408.84;5004561;28;20225;-75
2024/01/24 09:18:41;;;;;;;1.73;1.63;;;;;;;9.54;100.00;100407.44;5002970;28;20240;-75
2024/01/24 09:21:07;;;;;;;1.40;1.30;;;;;;;9.59;100.00;100412.50;5007362;28;20201;-75
2024/01/24 09:23:34;;;;;;;1.37;1.27;;;;;;;9.64;100.00;100397.25;5004725;28;20201;-75
2024/01/24 09:26:01;;;;;;;1.30;1.20;;;;;;;9.71;100.00;100392.25;5001989;28;20231;-75
2024/01/24 09:28:28;;;;;;;2.50;1.47;;;;;;;9.76;100.00;100388.63;5005877;28;20201;-75
2024/01/24 09:30:54;;;;;;;1.60;1.20;;;;;;;9.83;100.00;100391.53;5016857;28;20807;-75
2024/01/24 09:33:23;;;;;;;1.27;1.17;;;;;;;9.90;100.00;100413.63;5004300;28;20578;-75
2024/01/24 09:35:49;;;;;;;3.60;1.70;;;;;;;9.94;100.00;100417.16;5005479;28;20217;-75
2024/01/24 09:38:16;;;;;;;1.43;1.30;;;;;;;10.01;100.00;100408.72;5007914;28;20203;-75
2024/01/24 09:40:43;;;;;;;2.20;1.23;;;;;;;10.08;100.00;100415.03;5002441;28;20790;-75
2024/01/24 09:43:10;;;;;;;1.60;1.30;;;;;;;10.14;100.00;100403.19;5022037;28;20296;-75
2024/01/24 09:45:39;;;;;;;4.10;1.83;;;;;;;10.19;100.00;100423.31;5006420;28;21113;-75
2024/01/24 09:48:08;;;;;;;4.87;1.53;;;;;;;10.21;100.00;100406.06;5008569;28;20200;-75
2024/01/24 09:50:35;;;;;;;3.63;1.70;;;;;;;10.23;100.00;100403.09;5004186;28;20212;-75
2024/01/24 09:53:05;;;;;;;5.13;1.57;;;;;;;10.25;100.00;100398.28;5003295;28;20206;-75
2024/01/24 09:55:33;;;;;;;9.47;1.97;;;;;;;10.22;100.00;100402.31;5003448;28;20253;-75
2024/01/24 09:58:00;;;;;;;8.27;1.77;;;;;;;10.15;100.00;100410.00;5005105;28;20212;-75
2024/01/24 10:00:26;;;;;;;9.40;2.30;;;;;;;10.11;100.00;100427.59;5007543;28;20281;-75
2024/01/24 10:02:52;;;;;;;6.50;1.80;;;;;;;10.10;100.00;100415.47;5005813;28;20207;-75
2024/01/24 10:05:21;;;;;;;6.97;2.03;;;;;;;10.10;100.00;100436.56;5004670;28;20225;-75
2024/01/24 10:07:48;;;;;;;10.13;2.50;;;;;;;10.14;100.00;100412.97;5008320;28;20209;-75
2024/01/24 10:10:15;;;;;;;8.07;2.17;;;;;;;10.18;100.00;100411.22;5014044;28;20452;-75
2024/01/24 10:12:42;;;;;;;11.17;4.00;;;;;;;10.20;100.00;100404.50;5035171;28;20205;-74
2024/01/24 10:15:10;;;;;;;26.03;9.97;;;;;;;10.20;100.00;100407.16;5028740;28;20262;-75
2024/01/24 10:17:36;;;;;;;16.87;8.80;;;;;;;10.17;100.00;100423.66;5034881;28;20181;-75
2024/01/24 10:20:06;;;;;;;15.80;3.07;;;;;;;10.21;100.00;100429.03;5032363;28;20212;-75
2024/01/24 10:22:32;;;;;;;9.70;2.40;;;;;;;10.20;100.00;100430.88;5030208;28;20190;-75
2024/01/24 10:25:00;;;;;;;9.03;2.53;;;;;;;10.20;100.00;100432.78;5026631;28;20277;-74
2024/01/24 10:27:27;;;;;;;20.60;6.40;;;;;;;10.18;100.00;100435.72;5028553;28;20235;-75
2024/01/24 10:29:53;;;;;;;13.33;4.00;;;;;;;10.17;100.00;100439.47;5024836;28;20288;-75
2024/01/24 10:32:20;;;;;;;11.20;2.60;;;;;;;10.20;100.00;100446.72;5025078;28;20213;-75
2024/01/24 10:34:50;;;;;;;11.03;2.20;;;;;;;10.25;100.00;100451.03;5023655;28;20289;-74
2024/01/24 10:37:18;;;;;;;25.00;4.10;;;;;;;10.24;100.00;100449.50;5024407;28;20229;-73
2024/01/24 10:39:45;;;;;;;10.10;2.73;;;;;;;10.27;100.00;100465.47;5023717;28;20495;-74
2024/01/24 10:42:18;;;;;;;12.87;3.63;;;;;;;10.31;100.00;100458.41;5016120;28;20201;-74
2024/01/24 10:44:45;;;;;;;6.23;2.30;;;;;;;10.28;100.00;100453.78;5016330;28;20228;-74
2024/01/24 10:47:12;;;;;;;8.13;2.07;;;;;;;10.27;100.00;100457.53;5012877;28;20240;-74
2024/01/24 10:49:40;;;;;;;7.60;2.03;;;;;;;10.30;100.00;100438.41;5011479;28;20862;-74
2024/01/24 10:52:07;;;;;;;10.43;2.50;;;;;;;10.27;100.00;100448.84;5004857;28;20241;-74
2024/01/24 10:54:35;;;;;;;8.73;2.10;;;;;;;10.24;100.00;100463.44;5001508;28;20256;-74
2024/01/24 10:57:04;;;;;;;6.30;2.10;;;;;;;10.29;100.00;100455.34;5001141;28;20244;-74
2024/01/24 10:59:33;;;;;;;8.93;1.93;;;;;;;10.37;100.00;100458.97;5004939;28;20207;-74
2024/01/24 11:02:00;;;;;;;8.70;2.47;;;;;;;10.42;100.00;100480.69;5001979;28;20205;-74
2024/01/24 11:04:28;;;;;;;13.07;2.43;;;;;;;10.43;100.00;100468.22;5002805;28;20194;-74
2024/01/24 11:06:59;;;;;;;10.20;2.37;;;;;;;10.42;100.00;100474.63;5004407;28;20189;-74
2024/01/24 11:09:33;;;;;;;11.17;2.63;;;;;;;10.41;100.00;100465.91;5003301;28;20216;-74
2024/01/24 11:12:00;;;;;;;9.93;2.53;;;;;;;10.44;100.00;100477.69;5004312;28;20655;-74
2024/01/24 11:14:33;;;;;;;9.73;2.40;;;;;;;10.45;100.00;100466.81;5003906;28;20710;-74
2024/01/24 11:17:01;;;;;;;9.80;2.33;;;;;;;10.49;100.00;100470.34;5005979;28;20331;-74
2024/01/24 11:19:28;;;;;;;10.37;2.03;;;;;;;10.55;100.00;100481.44;5006002;28;20194;-74